Time;durP1;ratioP1;P1;durP2;ratioP2;P2;SDS_P1;SDS_P2;PMS_P1;PMS_P2;Temp;Humidity;BMP_temperature;BMP_pressure;BME280_temperature;BME280_humidity;BME280_pressure;Samples;Min_cycle;Max_cycle;Signal;HPM_P1;HPM_P2
2022/07/31 00:02:55;;;;;;;9.93;5.95;;;;;;;20.38;66.20;99385.50;7633149;32;39965;-79
2022/07/31 00:07:11;;;;;;;9.15;5.20;;;;;;;20.29;66.31;99380.06;7633185;32;38099;-80
2022/07/31 00:11:27;;;;;;;10.80;5.72;;;;;;;20.34;65.89;99384.59;7633162;32;37135;-79
2022/07/31 00:15:43;;;;;;;8.65;5.15;;;;;;;19.83;67.58;99377.44;7633150;32;39398;-79
2022/07/31 00:19:59;;;;;;;8.85;5.40;;;;;;;19.69;67.06;99371.38;7632917;32;39979;-79
2022/07/31 00:24:15;;;;;;;8.98;5.28;;;;;;;19.82;66.92;99377.78;7632798;32;39516;-80
2022/07/31 00:28:31;;;;;;;9.48;5.22;;;;;;;19.62;66.97;99368.37;7632743;32;37316;-80
2022/07/31 00:32:47;;;;;;;9.05;5.50;;;;;;;19.82;66.60;99370.28;7632769;32;41128;-79
2022/07/31 00:37:06;;;;;;;7.30;5.25;;;;;;;19.55;67.05;99370.88;7633012;32;40715;-80
2022/07/31 00:41:23;;;;;;;8.50;5.22;;;;;;;19.41;67.67;99372.00;7632790;32;37881;-81
2022/07/31 00:45:39;;;;;;;8.93;4.57;;;;;;;19.93;65.52;99373.38;7619495;32;37002;-79
2022/07/31 00:49:59;;;;;;;7.43;4.90;;;;;;;19.43;66.10;99366.13;7632845;32;39369;-79
2022/07/31 00:54:15;;;;;;;7.00;4.35;;;;;;;19.44;65.04;99359.47;7632753;32;40700;-80
2022/07/31 00:58:37;;;;;;;7.35;4.50;;;;;;;19.47;65.35;99365.12;7632193;32;38687;-79
2022/07/31 01:02:53;;;;;;;6.30;4.60;;;;;;;19.65;64.81;99362.16;7632533;32;37036;-79
2022/07/31 01:07:10;;;;;;;7.43;4.53;;;;;;;19.87;64.33;99364.50;7632639;32;40021;-80
2022/07/31 01:11:37;;;;;;;9.45;4.62;;;;;;;19.87;63.74;99366.47;7632519;32;39792;-81
2022/07/31 01:15:54;;;;;;;6.45;4.37;;;;;;;19.81;64.02;99365.06;7619412;32;38631;-80
2022/07/31 01:20:10;;;;;;;5.37;4.10;;;;;;;19.70;63.81;99367.47;7618899;32;38540;-80
2022/07/31 01:24:48;;;;;;;7.37;4.12;;;;;;;19.89;63.19;99358.63;7618439;32;39479;-79
2022/07/31 01:29:25;;;;;;;6.40;3.80;;;;;;;19.47;64.69;99356.81;7620921;32;39963;-79
2022/07/31 01:33:52;;;;;;;6.30;4.00;;;;;;;19.66;64.12;99369.28;7632297;32;37977;-79
2022/07/31 01:38:15;;;;;;;5.22;3.72;;;;;;;19.28;64.94;99364.81;7618678;32;37073;-79
2022/07/31 01:42:33;;;;;;;6.43;3.87;;;;;;;19.52;64.20;99361.31;7619067;32;39541;-79
2022/07/31 01:46:50;;;;;;;4.57;3.75;;;;;;;19.61;64.19;99361.19;7632084;32;40059;-80
2022/07/31 01:51:10;;;;;;;6.15;3.65;;;;;;;19.42;64.64;99365.34;7631710;32;37863;-79
2022/07/31 01:55:27;;;;;;;3.45;3.03;;;;;;;19.62;63.96;99363.63;7619074;32;37073;-79
2022/07/31 01:59:46;;;;;;;7.85;3.92;;;;;;;19.59;64.59;99357.97;7618594;32;40160;-80
2022/07/31 02:04:02;;;;;;;5.43;3.67;;;;;;;19.52;65.03;99359.38;7631765;32;39779;-79
2022/07/31 02:08:19;;;;;;;6.35;3.75;;;;;;;19.28;66.18;99362.88;7631807;32;37976;-79
2022/07/31 02:12:36;;;;;;;3.95;2.85;;;;;;;19.29;65.29;99358.16;7631718;32;37834;-78
2022/07/31 02:16:55;;;;;;;4.25;2.80;;;;;;;19.48;64.78;99352.87;7630967;32;39850;-79
2022/07/31 02:21:11;;;;;;;3.87;2.70;;;;;;;19.35;64.24;99348.50;7631494;32;40032;-79
2022/07/31 02:25:28;;;;;;;4.07;2.30;;;;;;;18.68;67.02;99351.19;7618088;32;37856;-79
2022/07/31 02:29:45;;;;;;;5.12;2.45;;;;;;;19.06;64.74;99353.00;7631603;32;36878;-80
2022/07/31 02:34:01;;;;;;;5.47;2.35;;;;;;;19.23;64.28;99345.69;7630818;32;39410;-80
2022/07/31 02:38:19;;;;;;;3.15;2.33;;;;;;;18.80;64.88;99347.69;7617239;32;40761;-79
2022/07/31 02:42:40;;;;;;;2.90;2.17;;;;;;;18.94;63.93;99344.66;7630853;32;38032;-79
2022/07/31 02:46:58;;;;;;;3.58;2.37;;;;;;;19.08;63.86;99344.38;7617774;32;37346;-80
2022/07/31 02:51:14;;;;;;;3.15;1.75;;;;;;;18.65;64.48;99338.06;7631025;32;40073;-75
2022/07/31 02:55:31;;;;;;;2.45;2.15;;;;;;;18.84;64.04;99354.16;7617604;32;40770;-76
2022/07/31 02:59:47;;;;;;;2.67;2.00;;;;;;;19.14;62.91;99343.00;7630607;32;39659;-80
2022/07/31 03:04:03;;;;;;;3.15;2.03;;;;;;;18.83;63.93;99355.31;7629724;32;35594;-81
2022/07/31 03:08:19;;;;;;;4.68;2.22;;;;;;;18.55;63.80;99339.25;7630614;32;39233;-80
2022/07/31 03:12:39;;;;;;;3.50;2.35;;;;;;;18.62;63.67;99338.72;7630141;32;39840;-81
2022/07/31 03:16:57;;;;;;;3.62;2.37;;;;;;;18.75;64.13;99332.13;7630196;32;37980;-82
2022/07/31 03:21:13;;;;;;;3.22;2.30;;;;;;;18.60;64.49;99324.44;7630189;32;37019;-78
2022/07/31 03:25:30;;;;;;;2.92;2.40;;;;;;;18.35;65.48;99327.06;7630100;32;40939;-81
2022/07/31 03:29:46;;;;;;;3.60;2.62;;;;;;;18.80;64.86;99327.53;7616807;32;39596;-80
2022/07/31 03:34:02;;;;;;;4.57;2.80;;;;;;;18.45;66.22;99330.56;7616305;32;38430;-80
2022/07/31 03:38:19;;;;;;;5.97;2.78;;;;;;;18.93;66.13;99320.94;7629621;32;36852;-81
2022/07/31 03:42:55;;;;;;;5.87;2.70;;;;;;;18.44;67.13;99320.66;7629363;32;39734;-80
2022/07/31 03:47:11;;;;;;;4.90;2.47;;;;;;;18.52;67.44;99319.78;7631070;32;40829;-80
2022/07/31 03:51:31;;;;;;;5.57;2.53;;;;;;;18.29;67.24;99328.41;7633421;32;38908;-80
2022/07/31 03:55:47;;;;;;;4.97;3.08;;;;;;;18.54;67.78;99325.78;7619990;32;37013;-80
2022/07/31 04:00:05;;;;;;;3.40;2.70;;;;;;;18.70;66.73;99324.03;7619652;32;39295;-77
2022/07/31 04:04:31;;;;;;;4.47;2.60;;;;;;;18.23;67.24;99327.00;7633349;32;39957;-79
2022/07/31 04:08:47;;;;;;;4.03;2.80;;;;;;;18.21;68.23;99323.75;7633091;32;38610;-78
2022/07/31 04:13:05;;;;;;;4.53;2.92;;;;;;;18.50;66.71;99335.88;7633329;32;37507;-79
2022/07/31 04:17:22;;;;;;;5.25;3.00;;;;;;;18.50;65.73;99330.37;7633023;32;38293;-79
2022/07/31 04:21:38;;;;;;;8.55;3.25;;;;;;;18.12;66.49;99342.31;7619601;32;39972;-79
2022/07/31 04:25:54;;;;;;;4.15;2.90;;;;;;;18.10;66.73;99352.87;7632822;32;37819;-79
2022/07/31 04:30:10;;;;;;;5.05;3.00;;;;;;;18.09;67.40;99351.22;7633618;32;35262;-80
2022/07/31 04:34:26;;;;;;;5.70;3.00;;;;;;;18.15;68.07;99358.19;7633277;32;39004;-78
2022/07/31 04:38:43;;;;;;;7.65;3.85;;;;;;;17.52;71.60;99368.94;7632942;32;40611;-79
2022/07/31 04:42:59;;;;;;;6.97;3.87;;;;;;;18.02;70.80;99366.38;7632576;32;38597;-78
2022/07/31 04:47:16;;;;;;;5.07;2.83;;;;;;;17.48;73.34;99366.03;7632599;32;36926;-78
2022/07/31 04:51:32;;;;;;;5.20;3.00;;;;;;;17.43;73.38;99372.53;7632829;32;39472;-77
2022/07/31 05:00:23;;;;;;;8.40;4.07;;;;;;;17.17;75.54;99369.03;7607504;32;37568;-82
2022/07/31 05:04:39;;;;;;;4.30;3.83;;;;;;;17.06;76.53;99363.84;7632576;32;37133;-82
2022/07/31 05:08:55;;;;;;;9.77;4.32;;;;;;;17.15;77.66;99371.31;7632435;32;40127;-83
2022/07/31 05:13:11;;;;;;;9.15;5.07;;;;;;;17.26;76.77;99365.12;7631874;32;40914;-83
2022/07/31 05:17:30;;;;;;;7.35;5.07;;;;;;;17.23;77.15;99368.53;7632293;32;38419;-81
2022/07/31 05:21:46;;;;;;;6.70;4.80;;;;;;;17.19;77.93;99361.25;7632209;32;36994;-81
2022/07/31 05:26:10;;;;;;;9.20;5.35;;;;;;;17.08;77.27;99377.31;7632444;32;40122;-81
2022/07/31 05:30:26;;;;;;;8.00;4.78;;;;;;;17.02;77.47;99373.91;7632205;32;40806;-81
2022/07/31 05:34:45;;;;;;;8.00;4.60;;;;;;;17.14;77.09;99370.47;7632208;32;38697;-81
2022/07/31 05:39:01;;;;;;;8.77;4.32;;;;;;;17.03;77.04;99382.97;7632212;32;37313;-79
2022/07/31 05:43:17;;;;;;;8.43;5.00;;;;;;;17.37;75.80;99375.81;7631902;32;39504;-79
2022/07/31 05:47:33;;;;;;;5.93;4.00;;;;;;;17.45;75.71;99388.75;7631989;32;39992;-79
2022/07/31 05:51:55;;;;;;;7.30;4.80;;;;;;;16.94;77.10;99376.66;7631504;32;38007;-80
2022/07/31 05:56:11;;;;;;;8.60;4.87;;;;;;;16.75;78.02;99383.25;7631378;32;37853;-80
2022/07/31 06:00:29;;;;;;;7.72;4.35;;;;;;;17.00;77.22;99387.16;7618102;32;39297;-78
2022/07/31 06:04:46;;;;;;;8.10;4.68;;;;;;;17.20;76.31;99382.16;7631705;32;40571;-80
2022/07/31 06:09:03;;;;;;;6.37;4.32;;;;;;;17.18;76.19;99387.97;7631033;32;37871;-81
2022/07/31 06:13:23;;;;;;;8.95;4.95;;;;;;;17.30;75.83;99383.75;7628770;32;37875;-78
2022/07/31 06:17:41;;;;;;;6.53;3.83;;;;;;;17.02;77.10;99389.59;7630768;32;39295;-85
2022/07/31 06:21:59;;;;;;;6.57;4.45;;;;;;;17.81;73.87;99390.25;7618398;32;40058;-84
2022/07/31 06:26:15;;;;;;;8.40;4.82;;;;;;;17.70;73.67;99389.03;7630754;32;37973;-84
2022/07/31 06:30:33;;;;;;;6.78;4.45;;;;;;;17.72;74.33;99395.00;7631482;32;37092;-83
2022/07/31 06:34:49;;;;;;;7.35;4.55;;;;;;;17.37;75.10;99390.38;7617657;32;39445;-82
2022/07/31 06:39:05;;;;;;;7.22;4.20;;;;;;;17.24;75.26;99385.88;7629930;32;40520;-84
2022/07/31 06:43:21;;;;;;;9.68;4.40;;;;;;;17.51;74.67;99398.47;7616604;32;37545;-83
2022/07/31 06:47:38;;;;;;;7.20;4.22;;;;;;;17.53;74.94;99398.94;7629572;32;37721;-83
2022/07/31 06:51:54;;;;;;;9.05;4.30;;;;;;;17.04;76.34;99399.19;7630976;32;38989;-86
2022/07/31 06:56:10;;;;;;;8.45;3.95;;;;;;;17.65;74.48;99396.31;7630989;32;40555;-87
2022/07/31 07:00:26;;;;;;;6.82;3.45;;;;;;;17.38;75.45;99402.22;7630753;32;37724;-87
2022/07/31 07:04:42;;;;;;;6.00;3.05;;;;;;;17.45;75.23;99403.34;7630718;32;37160;-82
2022/07/31 07:09:18;;;;;;;5.30;3.37;;;;;;;17.46;74.95;99398.63;7629921;32;39388;-85
2022/07/31 07:13:34;;;;;;;5.57;3.40;;;;;;;17.56;75.03;99395.53;7630367;32;40835;-84
2022/07/31 07:18:01;;;;;;;6.25;3.03;;;;;;;17.89;73.86;99397.72;7629751;32;36646;-85
2022/07/31 07:22:18;;;;;;;5.75;3.25;;;;;;;17.40;75.79;99394.41;7630827;32;36971;-84
2022/07/31 07:26:45;;;;;;;4.60;3.15;;;;;;;17.67;75.15;99406.22;7631588;32;39311;-84
2022/07/31 07:31:03;;;;;;;5.15;3.28;;;;;;;17.11;77.15;99395.94;7632753;32;41525;-83
2022/07/31 07:35:19;;;;;;;7.20;3.50;;;;;;;17.87;75.32;99386.22;7630685;32;38138;-82
2022/07/31 07:39:36;;;;;;;5.32;3.70;;;;;;;17.71;75.24;99398.87;7632154;32;36727;-83
2022/07/31 07:43:52;;;;;;;5.75;3.30;;;;;;;17.86;75.34;99390.13;7631985;32;39022;-84
2022/07/31 07:48:08;;;;;;;5.07;2.95;;;;;;;17.75;75.43;99389.63;7618988;32;39621;-80
2022/07/31 07:52:24;;;;;;;6.45;3.75;;;;;;;17.62;75.50;99393.41;7632034;32;37579;-84
2022/07/31 07:56:44;;;;;;;5.43;3.72;;;;;;;17.49;76.27;99391.66;7632600;32;37273;-82
2022/07/31 08:01:00;;;;;;;5.03;3.50;;;;;;;17.80;75.92;99397.72;7633155;32;39307;-72
2022/07/31 08:05:16;;;;;;;8.32;3.42;;;;;;;17.88;76.02;99409.88;7633190;32;40977;-82
2022/07/31 08:09:33;;;;;;;5.50;3.20;;;;;;;18.00;75.05;99407.25;7633205;32;38720;-79
2022/07/31 08:13:50;;;;;;;5.50;2.95;;;;;;;17.94;74.96;99413.28;7633090;32;37833;-78
2022/07/31 08:18:06;;;;;;;5.72;3.60;;;;;;;18.07;74.75;99423.28;7632588;32;40112;-77
2022/07/31 08:22:22;;;;;;;4.32;3.12;;;;;;;18.31;73.94;99436.47;7633113;32;40833;-84
2022/07/31 08:31:14;;;;;;;4.80;3.17;;;;;;;18.21;73.11;99434.09;7632895;32;37278;-85
2022/07/31 08:35:30;;;;;;;4.47;3.10;;;;;;;18.24;73.51;99443.66;7630579;32;39380;-84
2022/07/31 08:39:47;;;;;;;7.30;2.90;;;;;;;18.33;73.13;99445.25;7632839;32;39999;-83
2022/07/31 08:44:04;;;;;;;3.70;2.45;;;;;;;18.33;71.26;99447.19;7632733;32;37900;-81
2022/07/31 08:48:23;;;;;;;2.80;2.33;;;;;;;18.53;71.46;99440.12;7632892;32;36959;-83
2022/07/31 08:52:41;;;;;;;2.15;1.92;;;;;;;18.51;70.74;99447.91;7619663;32;39497;-85
2022/07/31 08:56:58;;;;;;;5.22;2.30;;;;;;;18.58;70.01;99459.25;7632667;32;39983;-86
2022/07/31 09:01:14;;;;;;;3.58;2.20;;;;;;;18.67;70.60;99462.75;7619191;32;37896;-86
2022/07/31 09:05:30;;;;;;;1.70;1.60;;;;;;;18.90;69.64;99456.94;7632647;32;37635;-85
2022/07/31 09:09:57;;;;;;;2.67;2.00;;;;;;;18.86;69.09;99473.38;7632504;32;39420;-81
2022/07/31 09:14:14;;;;;;;2.92;1.83;;;;;;;18.90;68.77;99466.06;7619588;32;40996;-84
2022/07/31 09:18:31;;;;;;;2.92;1.62;;;;;;;19.18;67.58;99468.28;7631273;32;37556;-78
2022/07/31 09:22:51;;;;;;;1.83;1.62;;;;;;;18.85;68.49;99466.25;7629480;32;37932;-82
2022/07/31 09:27:09;;;;;;;2.70;1.95;;;;;;;18.94;67.41;99471.72;7632402;32;39348;-82
2022/07/31 09:31:31;;;;;;;3.85;1.90;;;;;;;18.80;65.92;99471.12;7632852;32;40582;-82
2022/07/31 09:35:51;;;;;;;2.78;1.98;;;;;;;18.82;67.06;99463.34;7632424;32;38615;-85
2022/07/31 09:40:08;;;;;;;3.08;2.10;;;;;;;18.37;68.33;99470.22;7631434;32;37063;-84
2022/07/31 09:44:33;;;;;;;2.67;2.03;;;;;;;18.36;69.19;99479.62;7631506;32;39095;-82
2022/07/31 09:48:51;;;;;;;2.20;1.65;;;;;;;18.71;69.03;99473.94;7632082;32;39849;-84
2022/07/31 09:53:14;;;;;;;3.33;1.90;;;;;;;18.90;69.02;99470.75;7632036;32;37623;-83
2022/07/31 09:57:30;;;;;;;3.30;1.77;;;;;;;19.18;67.21;99475.75;7631764;32;37774;-82
2022/07/31 10:01:48;;;;;;;2.45;1.85;;;;;;;18.79;68.11;99497.13;7632080;32;39798;-81
2022/07/31 10:06:05;;;;;;;2.00;1.77;;;;;;;19.18;67.68;99482.09;7631920;32;40750;-79
2022/07/31 10:10:22;;;;;;;3.00;1.85;;;;;;;19.20;67.48;99482.56;7618278;32;37992;-81
2022/07/31 10:14:40;;;;;;;2.50;1.90;;;;;;;19.61;67.50;99492.00;7618424;32;38653;-79
2022/07/31 10:18:59;;;;;;;6.53;2.15;;;;;;;19.63;66.44;99491.66;7618449;32;40088;-80
2022/07/31 10:23:18;;;;;;;2.12;1.77;;;;;;;20.00;65.94;99495.34;7631416;32;40706;-82
2022/07/31 10:27:34;;;;;;;2.87;1.98;;;;;;;20.26;65.87;99494.25;7618551;32;36988;-82
2022/07/31 10:31:54;;;;;;;4.95;1.92;;;;;;;20.16;64.34;99495.50;7617030;32;37029;-82
2022/07/31 10:36:35;;;;;;;2.53;1.90;;;;;;;20.30;64.95;99497.13;7630255;32;40110;-80
2022/07/31 10:41:36;;;;;;;4.28;2.08;;;;;;;20.60;63.88;99483.88;7629629;32;40743;-81
2022/07/31 10:45:54;;;;;;;3.08;2.22;;;;;;;20.29;64.85;99496.31;7597246;32;37956;-80
2022/07/31 10:50:20;;;;;;;4.65;2.10;;;;;;;20.42;63.76;99509.03;7615952;32;36956;-81
2022/07/31 10:54:46;;;;;;;3.53;2.42;;;;;;;20.49;61.97;99516.78;7628852;32;39295;-79
2022/07/31 10:59:02;;;;;;;2.03;1.90;;;;;;;20.12;62.87;99519.47;7633209;32;39760;-80
2022/07/31 11:03:21;;;;;;;4.22;2.28;;;;;;;20.06;63.48;99523.63;7633153;32;37938;-79
2022/07/31 11:07:37;;;;;;;6.93;2.42;;;;;;;19.94;64.92;99523.56;7632759;32;37093;-79
2022/07/31 11:11:55;;;;;;;5.00;2.17;;;;;;;20.02;63.37;99528.22;7632933;32;39250;-79
2022/07/31 11:16:13;;;;;;;4.95;2.62;;;;;;;19.56;64.85;99532.84;7632686;32;39888;-80
2022/07/31 11:20:30;;;;;;;4.57;2.55;;;;;;;19.73;63.19;99534.66;7632139;32;37686;-81
2022/07/31 11:24:54;;;;;;;3.72;2.50;;;;;;;19.52;63.58;99541.00;7633441;32;38982;-81
2022/07/31 11:29:10;;;;;;;4.90;2.47;;;;;;;19.74;64.06;99550.09;7633815;32;40546;-79
2022/07/31 11:33:48;;;;;;;4.18;2.58;;;;;;;19.86;63.42;99555.72;7632712;32;40311;-83
2022/07/31 11:38:04;;;;;;;3.25;2.55;;;;;;;19.70;62.83;99556.31;7620181;32;38668;-78
2022/07/31 11:42:22;;;;;;;3.50;2.40;;;;;;;19.24;63.95;99557.31;7633389;32;37852;-79
2022/07/31 11:46:43;;;;;;;4.40;2.70;;;;;;;19.40;63.14;99561.09;7633071;32;39392;-80
2022/07/31 11:51:00;;;;;;;4.72;2.67;;;;;;;19.77;62.52;99555.78;7627470;32;40829;-79
2022/07/31 11:55:16;;;;;;;7.12;2.53;;;;;;;19.75;62.65;99560.84;7616179;32;38676;-81
2022/07/31 11:59:37;;;;;;;3.22;2.47;;;;;;;19.50;63.68;99560.69;7633385;32;37194;-80
2022/07/31 12:04:01;;;;;;;9.75;2.42;;;;;;;19.74;63.46;99552.88;7633311;32;39432;-80
2022/07/31 12:08:24;;;;;;;5.37;2.45;;;;;;;19.36;64.95;99581.47;7633278;32;40015;-80
2022/07/31 12:12:41;;;;;;;3.80;2.12;;;;;;;19.22;65.21;99576.19;7619339;32;37939;-81
2022/07/31 12:16:57;;;;;;;3.35;2.30;;;;;;;19.30;65.59;99586.38;7619511;32;37060;-81
2022/07/31 12:21:14;;;;;;;7.30;2.65;;;;;;;19.55;65.23;99578.25;7632997;32;39469;-81
2022/07/31 12:25:40;;;;;;;7.10;2.53;;;;;;;19.64;64.98;99578.97;7632954;32;39854;-82
2022/07/31 12:29:56;;;;;;;4.03;2.55;;;;;;;19.36;66.63;99576.75;7619286;32;38630;-80
2022/07/31 12:34:29;;;;;;;4.45;2.20;;;;;;;19.63;65.17;99571.84;7632904;32;37083;-81
2022/07/31 12:38:46;;;;;;;3.90;2.08;;;;;;;19.39;65.30;99578.84;7632643;32;39345;-81
2022/07/31 12:43:05;;;;;;;5.37;2.37;;;;;;;19.83;64.20;99562.75;7619670;32;39904;-81
2022/07/31 12:47:24;;;;;;;4.93;2.37;;;;;;;19.31;64.75;99563.91;7632550;32;38651;-80
2022/07/31 12:51:41;;;;;;;3.20;2.35;;;;;;;19.08;65.43;99576.44;7632314;32;37553;-81
2022/07/31 12:56:01;;;;;;;2.80;2.12;;;;;;;19.38;65.22;99568.91;7606721;32;40185;-81
2022/07/31 13:00:19;;;;;;;4.32;2.03;;;;;;;18.54;66.38;99569.53;7593291;32;40925;-81
2022/07/31 13:04:35;;;;;;;3.45;2.30;;;;;;;19.14;65.46;99564.88;7606447;32;37928;-82
2022/07/31 13:08:51;;;;;;;3.08;2.10;;;;;;;19.29;64.83;99568.19;7611760;32;37834;-82
2022/07/31 13:13:07;;;;;;;4.20;2.12;;;;;;;19.18;65.25;99565.00;7631562;32;39347;-86
2022/07/31 13:17:24;;;;;;;3.33;2.33;;;;;;;19.20;65.38;99559.94;7631200;32;40720;-83
2022/07/31 13:21:42;;;;;;;3.78;2.10;;;;;;;19.36;64.14;99573.19;7629896;32;38767;-84
2022/07/31 13:26:04;;;;;;;2.42;1.80;;;;;;;19.32;62.21;99565.53;7631276;32;37806;-88
2022/07/31 13:30:21;;;;;;;3.30;2.10;;;;;;;19.12;63.67;99556.06;7631233;32;39009;-82
2022/07/31 13:34:38;;;;;;;2.83;2.33;;;;;;;19.31;63.11;99552.06;7631446;32;39858;-85
2022/07/31 13:38:55;;;;;;;3.87;2.28;;;;;;;18.88;65.24;99555.91;7630911;32;38647;-85
2022/07/31 13:43:13;;;;;;;3.75;2.03;;;;;;;19.11;63.75;99542.63;7631231;32;37879;-85
2022/07/31 13:47:29;;;;;;;2.92;2.10;;;;;;;18.75;64.22;99553.03;7631818;32;39447;-86
2022/07/31 13:52:06;;;;;;;5.82;2.30;;;;;;;19.00;64.01;99547.72;7629385;32;40287;-81
2022/07/31 13:56:22;;;;;;;4.32;1.85;;;;;;;18.73;64.02;99554.47;7617670;32;37967;-84
2022/07/31 14:00:58;;;;;;;3.70;2.65;;;;;;;18.74;64.34;99579.00;7630471;32;37001;-85
2022/07/31 14:05:20;;;;;;;4.50;2.62;;;;;;;18.75;64.84;99575.09;7630784;32;40179;-86
2022/07/31 14:09:41;;;;;;;5.40;2.22;;;;;;;18.54;65.87;99577.78;7630184;32;40000;-84
2022/07/31 14:14:10;;;;;;;3.70;2.33;;;;;;;18.35;65.03;99580.94;7628651;32;37791;-82
2022/07/31 14:18:27;;;;;;;5.25;2.75;;;;;;;18.29;66.75;99565.69;7628367;32;37365;-81
2022/07/31 14:22:43;;;;;;;5.18;2.40;;;;;;;18.37;65.37;99583.38;7617006;32;40192;-82
2022/07/31 14:26:59;;;;;;;3.40;2.00;;;;;;;18.13;65.79;99594.97;7630324;32;39998;-84
2022/07/31 14:31:15;;;;;;;3.37;1.92;;;;;;;18.38;65.48;99569.25;7631012;32;38569;-83
2022/07/31 14:35:32;;;;;;;3.65;2.00;;;;;;;17.87;66.21;99584.75;7617976;32;37791;-85
2022/07/31 14:39:48;;;;;;;2.92;2.10;;;;;;;17.94;63.46;99578.75;7628636;32;39143;-84
2022/07/31 14:44:04;;;;;;;3.30;2.17;;;;;;;18.27;62.49;99569.94;7613446;32;40580;-83
2022/07/31 14:48:20;;;;;;;2.72;1.60;;;;;;;18.41;60.96;99564.22;7626804;32;37709;-83
2022/07/31 14:52:38;;;;;;;4.70;1.90;;;;;;;18.79;59.83;99547.62;7627561;32;37593;-80
2022/07/31 14:56:55;;;;;;;4.12;2.03;;;;;;;18.92;57.13;99552.16;7628009;32;39405;-80
2022/07/31 15:01:16;;;;;;;3.97;2.10;;;;;;;18.82;57.11;99540.66;7628136;32;40284;-80
2022/07/31 15:05:32;;;;;;;6.03;2.25;;;;;;;19.03;56.67;99543.47;7629577;32;38489;-80
2022/07/31 15:10:10;;;;;;;6.55;1.67;;;;;;;19.19;56.66;99532.66;7628850;32;38118;-82
2022/07/31 15:14:27;;;;;;;2.60;2.20;;;;;;;18.74;56.47;99523.78;7629645;32;39079;-81
2022/07/31 15:18:43;;;;;;;2.92;1.90;;;;;;;19.03;56.37;99519.41;7629217;32;40008;-81
2022/07/31 15:23:03;;;;;;;3.85;2.60;;;;;;;19.29;54.32;99529.47;7629447;32;38039;-82
2022/07/31 15:27:20;;;;;;;5.25;2.00;;;;;;;19.04;58.16;99537.63;7629682;32;37000;-84
2022/07/31 15:31:37;;;;;;;3.17;2.20;;;;;;;19.45;56.66;99518.63;7630104;32;39048;-84
2022/07/31 15:35:53;;;;;;;4.37;1.70;;;;;;;19.39;56.08;99529.09;7629933;32;40458;-84
2022/07/31 15:40:12;;;;;;;4.62;1.98;;;;;;;19.71;53.21;99532.22;7629657;32;37881;-82
2022/07/31 15:44:28;;;;;;;4.28;2.08;;;;;;;19.60;56.11;99545.66;7618747;32;38117;-83
2022/07/31 15:48:44;;;;;;;4.60;2.28;;;;;;;19.64;57.88;99529.19;7633427;32;40078;-83
2022/07/31 15:53:01;;;;;;;2.45;1.95;;;;;;;19.70;57.83;99525.09;7633295;32;40003;-81
2022/07/31 15:57:17;;;;;;;3.60;2.20;;;;;;;19.58;58.05;99520.31;7633248;32;38052;-82
2022/07/31 16:01:34;;;;;;;5.30;1.80;;;;;;;19.83;57.99;99512.97;7633111;32;36999;-83
2022/07/31 16:05:50;;;;;;;2.30;1.70;;;;;;;19.86;57.08;99512.25;7633185;32;39470;-83
2022/07/31 16:10:13;;;;;;;3.17;1.75;;;;;;;19.94;57.33;99515.25;7633231;32;39930;-83
2022/07/31 16:14:33;;;;;;;3.40;2.30;;;;;;;19.90;57.55;99504.06;7633081;32;37593;-81
2022/07/31 16:18:49;;;;;;;4.05;2.30;;;;;;;20.16;56.14;99492.75;7632573;32;37021;-80
2022/07/31 16:23:05;;;;;;;2.50;1.90;;;;;;;20.04;56.68;99512.06;7632964;32;39040;-82
2022/07/31 16:27:21;;;;;;;2.85;1.90;;;;;;;19.94;56.11;99515.25;7632870;32;39918;-82
2022/07/31 16:31:37;;;;;;;2.08;1.83;;;;;;;19.82;56.57;99514.09;7632844;32;37899;-84
2022/07/31 16:35:54;;;;;;;3.53;2.00;;;;;;;19.85;56.98;99521.72;7632922;32;36983;-82
2022/07/31 16:40:11;;;;;;;3.75;2.25;;;;;;;19.64;57.88;99521.69;7632417;32;39443;-85
2022/07/31 16:44:46;;;;;;;3.22;2.28;;;;;;;19.50;58.90;99516.44;7632735;32;40002;-84
2022/07/31 16:49:02;;;;;;;3.33;2.00;;;;;;;19.49;59.73;99514.84;7632684;32;39139;-83
2022/07/31 16:53:41;;;;;;;3.50;2.28;;;;;;;19.52;59.74;99507.81;7631102;32;37407;-82
2022/07/31 16:58:17;;;;;;;5.32;2.47;;;;;;;19.64;59.44;99520.91;7621138;32;40620;-82
2022/07/31 17:02:39;;;;;;;5.97;2.10;;;;;;;19.75;59.00;99511.06;7632529;32;40880;-84
2022/07/31 17:06:55;;;;;;;3.80;2.22;;;;;;;19.61;59.64;99510.50;7632037;32;37993;-76
2022/07/31 17:11:11;;;;;;;4.68;2.42;;;;;;;19.92;61.36;99507.34;7632496;32;38021;-79
2022/07/31 17:15:27;;;;;;;6.00;2.40;;;;;;;20.06;60.70;99499.53;7632707;32;39442;-82
2022/07/31 17:19:43;;;;;;;7.68;3.37;;;;;;;19.93;60.38;99499.84;7632113;32;40725;-85
2022/07/31 17:24:02;;;;;;;5.68;3.22;;;;;;;20.13;59.98;99509.19;7619380;32;37973;-83
2022/07/31 17:28:19;;;;;;;27.37;17.73;;;;;;;19.97;58.35;99501.59;7632378;32;37129;-84
2022/07/31 17:32:35;;;;;;;5.60;2.45;;;;;;;19.91;60.25;99502.94;7632319;32;40131;-76
2022/07/31 17:36:51;;;;;;;5.47;2.42;;;;;;;19.83;57.18;99510.19;7632051;32;39996;-79
2022/07/31 17:41:07;;;;;;;4.57;1.85;;;;;;;20.15;58.31;99507.72;7632137;32;37835;-81
2022/07/31 17:45:41;;;;;;;4.80;2.00;;;;;;;20.13;54.98;99525.81;7631626;32;36779;-80
2022/07/31 17:50:17;;;;;;;3.40;2.00;;;;;;;19.89;55.71;99530.94;7631632;32;40679;-80
2022/07/31 17:54:33;;;;;;;2.17;1.90;;;;;;;19.99;55.62;99537.19;7632103;32;39974;-82
2022/07/31 17:58:49;;;;;;;2.45;1.77;;;;;;;20.16;55.67;99525.97;7631902;32;38031;-82
2022/07/31 18:03:05;;;;;;;4.15;2.00;;;;;;;20.23;56.89;99540.03;7631588;32;37143;-82
2022/07/31 18:07:23;;;;;;;2.83;2.08;;;;;;;20.15;58.51;99540.12;7626440;32;155842;-86
2022/07/31 18:11:39;;;;;;;4.35;2.03;;;;;;;19.90;59.77;99540.03;7631983;32;39647;-82
2022/07/31 18:15:57;;;;;;;2.03;1.70;;;;;;;19.97;59.21;99547.78;7631727;32;37856;-84
2022/07/31 18:20:16;;;;;;;6.05;2.25;;;;;;;19.97;59.43;99550.56;7631659;32;37766;-75
2022/07/31 18:24:32;;;;;;;6.78;2.05;;;;;;;20.02;59.19;99547.56;7631521;32;39095;-83
2022/07/31 18:28:49;;;;;;;5.28;1.73;;;;;;;20.07;58.15;99545.41;7617415;32;40793;-82
2022/07/31 18:33:05;;;;;;;2.08;1.70;;;;;;;19.98;58.29;99552.97;7630594;32;37824;-82
2022/07/31 18:37:21;;;;;;;2.70;1.73;;;;;;;19.85;56.03;99554.91;7631404;32;37308;-82
2022/07/31 18:41:37;;;;;;;2.30;1.80;;;;;;;19.86;55.74;99567.56;7618011;32;40083;-83
2022/07/31 18:45:53;;;;;;;3.20;1.92;;;;;;;19.50;57.16;99577.28;7631150;32;39912;-83
2022/07/31 18:50:11;;;;;;;3.95;1.87;;;;;;;19.52;57.31;99574.19;7631051;32;38373;-83
2022/07/31 18:54:47;;;;;;;2.47;1.90;;;;;;;19.59;57.17;99579.16;7630228;32;37397;-83
2022/07/31 18:59:09;;;;;;;5.43;1.95;;;;;;;19.57;58.02;99585.03;7631113;32;39330;-83
2022/07/31 19:03:25;;;;;;;2.75;1.80;;;;;;;19.42;58.31;99600.28;7630826;32;40244;-82
2022/07/31 19:07:41;;;;;;;3.72;2.10;;;;;;;19.46;57.79;99601.22;7630617;32;38699;-82
2022/07/31 19:11:57;;;;;;;2.20;1.70;;;;;;;19.61;57.30;99604.53;7630356;32;37809;-82
2022/07/31 19:16:15;;;;;;;3.22;1.80;;;;;;;19.51;56.79;99609.31;7630488;32;40116;-82
2022/07/31 19:20:33;;;;;;;1.92;1.60;;;;;;;19.54;58.43;99609.78;7633301;32;40098;-82
2022/07/31 19:25:11;;;;;;;4.47;1.90;;;;;;;19.63;58.44;99618.84;7633226;32;39316;-82
2022/07/31 19:29:27;;;;;;;5.82;1.70;;;;;;;19.59;59.19;99615.13;7633375;32;37849;-83
2022/07/31 19:33:43;;;;;;;37.78;17.23;;;;;;;19.66;58.74;99620.91;7633963;32;39018;-85
2022/07/31 19:38:02;;;;;;;6.75;3.45;;;;;;;19.65;56.89;99594.44;7633534;32;39867;-84
2022/07/31 19:42:19;;;;;;;4.65;1.98;;;;;;;19.51;58.02;99606.56;7633676;32;38526;-84
2022/07/31 19:46:35;;;;;;;3.78;2.00;;;;;;;19.44;58.17;99606.28;7633587;32;36987;-84
2022/07/31 19:50:51;;;;;;;2.40;1.90;;;;;;;19.38;59.61;99604.84;7633550;32;40064;-82
2022/07/31 19:55:12;;;;;;;3.85;2.03;;;;;;;19.26;58.51;99602.81;7633185;32;40221;-83
2022/07/31 19:59:30;;;;;;;5.97;2.20;;;;;;;19.33;59.10;99599.50;7632397;32;37661;-84
2022/07/31 20:03:48;;;;;;;6.18;2.00;;;;;;;19.65;58.63;99608.25;7632793;32;36311;-84
2022/07/31 20:08:04;;;;;;;3.25;1.85;;;;;;;19.50;58.77;99599.38;7631020;32;39429;-87
2022/07/31 20:12:20;;;;;;;4.37;2.22;;;;;;;19.31;60.03;99596.28;7615976;32;41225;-84
2022/07/31 20:16:36;;;;;;;3.85;2.40;;;;;;;19.57;59.20;99593.31;7632980;32;37591;-87
2022/07/31 20:20:57;;;;;;;4.60;2.62;;;;;;;19.46;60.38;99592.13;7632424;32;36791;-83
2022/07/31 20:25:13;;;;;;;2.90;2.10;;;;;;;19.45;60.12;99590.50;7632961;32;39033;-85
2022/07/31 20:29:35;;;;;;;6.93;2.60;;;;;;;19.28;60.58;99580.38;7632830;32;41004;-84